Time;durP1;ratioP1;P1;durP2;ratioP2;P2;SDS_P1;SDS_P2;PMS_P1;PMS_P2;Temp;Humidity;BMP_temperature;BMP_pressure;BME280_temperature;BME280_humidity;BME280_pressure;Samples;Min_cycle;Max_cycle;Signal;HPM_P1;HPM_P2
2023/07/05 00:00:28;;;;;;;14.50;11.23;;;;;;;24.90;63.57;95178.19;5133997;27;20041;-79
2023/07/05 00:02:54;;;;;;;19.17;11.45;;;;;;;24.86;63.38;95180.88;5152131;27;20038;-78
2023/07/05 00:05:20;;;;;;;16.40;12.52;;;;;;;24.44;63.14;95118.59;5152984;27;20034;-79
2023/07/05 00:07:45;;;;;;;26.15;12.65;;;;;;;24.70;63.02;95163.94;5133891;27;20073;-79
2023/07/05 00:10:11;;;;;;;16.00;11.23;;;;;;;24.73;62.67;95173.28;5133995;27;20043;-78
2023/07/05 00:12:37;;;;;;;14.32;10.90;;;;;;;24.80;62.31;95178.81;5134099;27;20035;-78
2023/07/05 00:15:04;;;;;;;22.63;11.80;;;;;;;24.53;62.10;95148.97;5133750;27;20107;-78
2023/07/05 00:17:34;;;;;;;17.13;11.75;;;;;;;24.79;61.94;95178.06;5152983;27;20083;-78
2023/07/05 00:20:00;;;;;;;18.33;11.80;;;;;;;24.79;61.99;95179.97;5156372;27;20035;-78
2023/07/05 00:22:26;;;;;;;17.85;12.30;;;;;;;24.80;61.12;95179.59;5120858;27;20023;-79
2023/07/05 00:24:53;;;;;;;14.40;11.32;;;;;;;24.53;60.93;95140.81;5137567;27;20037;-78
2023/07/05 00:27:19;;;;;;;20.13;12.23;;;;;;;24.55;60.96;95154.81;5156438;27;20030;-78
2023/07/05 00:29:45;;;;;;;15.80;10.88;;;;;;;24.57;60.12;95160.63;5137393;27;20047;-78
2023/07/05 00:32:10;;;;;;;17.80;11.52;;;;;;;24.48;59.97;95176.38;5156778;27;20030;-79
2023/07/05 00:34:35;;;;;;;15.63;10.45;;;;;;;24.55;59.58;95179.22;5156453;27;20087;-79
2023/07/05 00:37:01;;;;;;;14.15;10.13;;;;;;;24.40;58.99;95169.28;5137600;27;20026;-79
2023/07/05 00:39:26;;;;;;;16.25;11.63;;;;;;;24.38;58.25;95163.41;5156356;27;20022;-79
2023/07/05 00:41:52;;;;;;;18.02;11.27;;;;;;;24.56;58.42;95190.84;5155901;27;20031;-79
2023/07/05 00:44:18;;;;;;;14.63;10.90;;;;;;;24.71;58.11;95198.06;5155897;27;20065;-79
2023/07/05 00:46:48;;;;;;;13.05;10.23;;;;;;;24.48;58.52;95170.97;5137447;27;20039;-79
2023/07/05 00:49:21;;;;;;;16.80;10.98;;;;;;;24.28;58.86;95152.38;5137507;27;20130;-79
2023/07/05 00:51:57;;;;;;;17.80;12.18;;;;;;;24.56;59.27;95196.25;5137132;27;20039;-79
2023/07/05 00:54:27;;;;;;;18.95;11.05;;;;;;;24.55;59.43;95189.28;5155785;27;20058;-79
2023/07/05 00:57:18;;;;;;;17.90;11.90;;;;;;;23.87;59.43;95083.53;5156356;27;20030;-79
2023/07/05 00:59:51;;;;;;;;;;;;;;;24.57;59.27;95190.44;5155732;27;20055;-79
2023/07/05 01:02:18;;;;;;;18.73;11.35;;;;;;;24.43;59.13;95154.97;5155705;27;20385;-79
2023/07/05 01:04:44;;;;;;;13.93;10.73;;;;;;;24.36;59.28;95156.78;5136880;27;20034;-79
2023/07/05 01:07:10;;;;;;;16.85;11.30;;;;;;;24.28;59.19;95144.25;5136967;27;20069;-79
2023/07/05 01:09:35;;;;;;;17.73;10.43;;;;;;;24.41;59.19;95168.09;5156181;27;20539;-79
2023/07/05 01:12:30;;;;;;;14.55;10.95;;;;;;;24.48;58.97;95179.09;5137037;27;20038;-79
2023/07/05 01:15:02;;;;;;;24.45;10.15;;;;;;;24.45;58.99;95176.31;5155572;27;20019;-79
2023/07/05 01:17:51;;;;;;;15.95;10.45;;;;;;;24.43;58.75;95182.09;5155590;27;20099;-79
2023/07/05 01:20:54;;;;;;;16.30;10.90;;;;;;;24.42;58.65;95177.81;5155425;27;20061;-79
2023/07/05 01:23:33;;;;;;;24.77;12.38;;;;;;;24.37;58.97;95185.47;5136867;27;20150;-80
2023/07/05 01:26:33;;;;;;;16.80;11.48;;;;;;;24.27;59.27;95173.28;5136857;27;20030;-79
2023/07/05 01:29:25;;;;;;;14.57;10.00;;;;;;;24.13;59.22;95157.53;5155188;27;20029;-79
2023/07/05 01:32:15;;;;;;;15.63;11.18;;;;;;;24.17;59.46;95171.94;5123290;27;20038;-79
2023/07/05 01:34:54;;;;;;;17.67;11.65;;;;;;;24.13;59.69;95154.03;5136957;27;20403;-79
2023/07/05 01:37:31;;;;;;;16.70;11.02;;;;;;;24.21;59.75;95164.66;5136734;27;20466;-79
2023/07/05 01:39:57;;;;;;;14.93;11.65;;;;;;;24.10;60.06;95133.09;5136084;27;20034;-81
2023/07/05 01:42:31;;;;;;;18.17;10.85;;;;;;;24.26;60.02;95160.13;5135631;27;20042;-81
2023/07/05 01:44:57;;;;;;;13.60;10.80;;;;;;;24.16;60.35;95154.13;5135920;27;20031;-81
2023/07/05 01:47:36;;;;;;;17.05;11.35;;;;;;;24.23;60.41;95158.91;5135277;27;20420;-81
2023/07/05 01:50:26;;;;;;;17.20;10.65;;;;;;;24.23;60.28;95148.84;5135560;27;20462;-81
2023/07/05 01:53:03;;;;;;;17.70;11.90;;;;;;;24.23;60.20;95156.19;5154541;27;20109;-78
2023/07/05 01:55:39;;;;;;;17.70;11.80;;;;;;;24.04;60.26;95127.16;5136355;27;20035;-78
2023/07/05 01:58:14;;;;;;;17.67;10.85;;;;;;;24.17;60.31;95152.97;5136207;27;20121;-78
2023/07/05 02:00:42;;;;;;;18.38;11.15;;;;;;;24.14;60.21;95145.56;5154975;27;20038;-78
2023/07/05 02:03:11;;;;;;;16.15;11.43;;;;;;;24.04;60.78;95134.50;5154546;27;20034;-78
2023/07/05 02:05:37;;;;;;;15.00;10.98;;;;;;;23.88;60.99;95123.78;5135980;27;20027;-78
2023/07/05 02:08:04;;;;;;;17.27;11.70;;;;;;;24.04;61.14;95148.84;5154384;27;20054;-78
2023/07/05 02:10:30;;;;;;;16.38;11.30;;;;;;;24.04;61.05;95153.47;5135621;27;20023;-78
2023/07/05 02:12:57;;;;;;;16.05;12.05;;;;;;;23.79;61.36;95129.44;5135514;27;20027;-78
2023/07/05 02:15:23;;;;;;;14.82;11.23;;;;;;;23.95;61.48;95134.78;5135099;27;20026;-78
2023/07/05 02:17:49;;;;;;;15.60;11.15;;;;;;;23.67;61.70;95090.91;5153558;27;20049;-78
2023/07/05 02:20:15;;;;;;;14.98;11.25;;;;;;;23.96;61.69;95133.59;5154284;27;20054;-78
2023/07/05 02:22:40;;;;;;;18.10;12.40;;;;;;;23.81;61.62;95113.59;5135306;27;20492;-78
2023/07/05 02:25:06;;;;;;;16.92;11.73;;;;;;;23.87;61.90;95126.88;5135332;27;20062;-78
2023/07/05 02:27:32;;;;;;;15.77;12.00;;;;;;;23.92;61.99;95137.41;5135404;27;20026;-78
2023/07/05 02:29:57;;;;;;;19.67;12.00;;;;;;;23.84;61.85;95129.16;5153636;27;20038;-78
2023/07/05 02:32:24;;;;;;;20.52;12.00;;;;;;;23.73;61.91;95111.13;5135438;27;20091;-78
2023/07/05 02:34:50;;;;;;;20.00;12.52;;;;;;;23.90;61.95;95142.38;5135120;27;20031;-78
2023/07/05 02:37:16;;;;;;;19.35;12.35;;;;;;;23.73;62.00;95119.25;5134945;27;20126;-78
2023/07/05 02:39:42;;;;;;;17.67;11.75;;;;;;;23.71;62.23;95110.72;5135275;27;20037;-78
2023/07/05 02:42:08;;;;;;;17.20;11.80;;;;;;;23.84;62.36;95145.41;5133760;27;20060;-78
2023/07/05 02:44:34;;;;;;;23.02;12.07;;;;;;;23.73;62.11;95133.56;5153797;27;20042;-78
2023/07/05 02:46:59;;;;;;;15.70;12.65;;;;;;;23.80;62.26;95149.19;5134884;27;20103;-78
2023/07/05 02:49:25;;;;;;;20.38;12.40;;;;;;;23.54;62.43;95119.28;5153128;27;20030;-78
2023/07/05 02:51:51;;;;;;;17.95;12.68;;;;;;;23.74;62.32;95139.75;5153815;27;20030;-78
2023/07/05 02:54:16;;;;;;;19.58;12.10;;;;;;;23.75;62.30;95141.34;5134555;27;20527;-78
2023/07/05 02:56:42;;;;;;;16.98;12.35;;;;;;;23.43;62.40;95097.38;5134714;27;20373;-78
2023/07/05 02:59:07;;;;;;;15.85;11.90;;;;;;;23.70;62.53;95139.72;5134982;27;20511;-78
2023/07/05 03:01:33;;;;;;;19.50;12.27;;;;;;;22.98;62.65;95033.09;5134530;27;20030;-78
2023/07/05 03:03:58;;;;;;;18.08;11.73;;;;;;;23.07;62.59;95055.31;5153586;27;20404;-78
2023/07/05 03:06:24;;;;;;;20.80;12.02;;;;;;;23.11;62.68;95055.38;5153260;27;20038;-78
2023/07/05 03:08:49;;;;;;;16.27;12.52;;;;;;;23.15;62.71;95073.25;5135152;27;20031;-78
2023/07/05 03:11:14;;;;;;;20.00;13.35;;;;;;;23.57;62.99;95130.19;5153363;27;20087;-78
2023/07/05 03:13:40;;;;;;;23.20;12.65;;;;;;;23.40;62.88;95109.72;5134243;27;20043;-79
2023/07/05 03:16:07;;;;;;;21.38;12.63;;;;;;;23.27;62.94;95083.13;5134793;27;20559;-78
2023/07/05 03:18:32;;;;;;;19.90;12.85;;;;;;;23.02;63.11;95040.16;5134738;27;20087;-78
2023/07/05 03:20:58;;;;;;;21.05;12.50;;;;;;;23.51;63.37;95122.69;5134683;27;20042;-78
2023/07/05 03:23:24;;;;;;;19.30;13.02;;;;;;;23.18;63.25;95075.25;5152956;27;20026;-79
2023/07/05 03:25:58;;;;;;;19.83;13.43;;;;;;;23.40;63.31;95098.09;5134087;27;20035;-78
2023/07/05 03:28:26;;;;;;;18.95;12.82;;;;;;;23.26;63.42;95081.59;5152912;27;20763;-78
2023/07/05 03:31:04;;;;;;;19.00;11.48;;;;;;;23.29;63.34;95078.16;5134655;27;20034;-78
2023/07/05 03:33:31;;;;;;;21.20;13.82;;;;;;;23.43;63.03;95102.78;5132133;27;20030;-78
2023/07/05 03:35:58;;;;;;;23.88;13.75;;;;;;;23.47;62.88;95103.66;5134653;27;20030;-78
2023/07/05 03:38:26;;;;;;;19.20;12.20;;;;;;;23.60;62.95;95115.91;5153264;27;20176;-78
2023/07/05 03:40:58;;;;;;;28.23;13.05;;;;;;;23.59;63.00;95127.09;5153261;27;20113;-78
2023/07/05 03:43:25;;;;;;;20.73;12.98;;;;;;;23.56;62.79;95100.75;5153240;27;20030;-78
2023/07/05 03:45:51;;;;;;;23.77;13.57;;;;;;;23.44;62.66;95066.47;5152156;27;20500;-78
2023/07/05 03:48:16;;;;;;;18.67;12.98;;;;;;;23.63;62.70;95082.72;5133982;27;20027;-78
2023/07/05 03:50:42;;;;;;;18.27;12.57;;;;;;;23.79;62.41;95117.84;5134176;27;20038;-78
2023/07/05 03:53:07;;;;;;;23.67;13.25;;;;;;;23.76;62.50;95107.72;5154535;27;20034;-78
2023/07/05 03:55:36;;;;;;;17.80;12.57;;;;;;;23.66;62.06;95084.69;5156870;27;20038;-78
2023/07/05 03:58:02;;;;;;;25.63;13.32;;;;;;;23.64;62.06;95083.50;5137719;27;20068;-78
2023/07/05 04:00:27;;;;;;;20.92;12.45;;;;;;;23.74;61.69;95101.84;5156697;27;20039;-78
2023/07/05 04:02:53;;;;;;;22.65;12.68;;;;;;;24.03;61.97;95136.44;5156678;27;20043;-78
2023/07/05 04:05:19;;;;;;;19.33;13.85;;;;;;;24.00;61.83;95130.97;5137632;27;20027;-78
2023/07/05 04:07:44;;;;;;;21.02;13.70;;;;;;;24.07;61.68;95141.94;5156098;27;20050;-78
2023/07/05 04:10:10;;;;;;;18.83;12.45;;;;;;;24.09;61.67;95129.59;5156361;27;20079;-78
2023/07/05 04:12:35;;;;;;;19.25;13.73;;;;;;;23.96;61.59;95105.72;5137568;27;20449;-77
2023/07/05 04:15:01;;;;;;;17.42;13.02;;;;;;;23.97;61.87;95110.78;5156208;27;20030;-78
2023/07/05 04:17:30;;;;;;;19.88;12.43;;;;;;;23.81;61.71;95083.03;5155983;27;20115;-78
2023/07/05 04:19:55;;;;;;;22.10;13.45;;;;;;;24.01;61.60;95114.38;5155915;27;20066;-78
2023/07/05 04:22:21;;;;;;;24.35;12.93;;;;;;;24.04;61.64;95124.47;5137797;27;20131;-78
2023/07/05 04:24:46;;;;;;;25.27;13.40;;;;;;;23.81;61.64;95081.09;5137313;27;20059;-78
2023/07/05 04:27:12;;;;;;;21.33;12.43;;;;;;;24.04;61.66;95138.00;5156057;27;20027;-78
2023/07/05 04:29:38;;;;;;;22.08;13.45;;;;;;;23.96;61.73;95125.47;5156480;27;20401;-78
2023/07/05 04:32:04;;;;;;;18.50;13.18;;;;;;;24.15;61.57;95157.19;5136828;27;20027;-78
2023/07/05 04:34:29;;;;;;;19.23;13.25;;;;;;;24.18;61.20;95162.63;5137250;27;20421;-78
2023/07/05 04:36:54;;;;;;;18.40;12.55;;;;;;;23.92;61.47;95121.94;5156148;27;20106;-78
2023/07/05 04:39:20;;;;;;;17.92;13.82;;;;;;;24.03;61.08;95138.41;5155422;27;20088;-78
2023/07/05 04:41:45;;;;;;;18.92;12.80;;;;;;;24.12;61.31;95147.84;5136825;27;20049;-78
2023/07/05 04:44:11;;;;;;;19.77;13.60;;;;;;;24.07;61.16;95150.84;5136941;27;20026;-78
2023/07/05 04:46:36;;;;;;;23.73;13.88;;;;;;;23.96;61.23;95116.56;5128596;27;20039;-79
2023/07/05 04:49:02;;;;;;;22.70;13.35;;;;;;;24.23;60.92;95158.91;5135040;27;20033;-79
2023/07/05 04:51:27;;;;;;;19.40;12.38;;;;;;;24.27;60.93;95159.72;5118338;27;20066;-79
2023/07/05 04:53:53;;;;;;;17.27;12.75;;;;;;;24.32;61.01;95162.16;5121587;27;20031;-79
2023/07/05 04:56:19;;;;;;;22.30;13.48;;;;;;;24.00;60.95;95104.66;5126643;27;20026;-78
2023/07/05 04:58:45;;;;;;;16.90;12.52;;;;;;;24.10;61.31;95124.97;5154795;27;20179;-77
2023/07/05 05:01:13;;;;;;;19.05;13.43;;;;;;;24.26;60.64;95143.84;5132694;27;20064;-78
2023/07/05 05:03:38;;;;;;;22.48;12.57;;;;;;;24.28;60.65;95149.69;5134460;27;20035;-78
2023/07/05 05:06:04;;;;;;;22.77;12.68;;;;;;;24.43;60.64;95167.75;5116419;27;20023;-79
2023/07/05 05:08:30;;;;;;;21.63;12.60;;;;;;;24.23;60.61;95132.59;5110413;27;20043;-78
2023/07/05 05:10:59;;;;;;;17.70;12.30;;;;;;;24.34;60.78;95142.81;5102980;28;20201;-78
2023/07/05 05:13:26;;;;;;;19.52;12.65;;;;;;;24.44;60.62;95151.13;5127756;27;20138;-79
2023/07/05 05:15:52;;;;;;;21.70;12.55;;;;;;;24.14;60.69;95106.84;5127261;27;20548;-78
2023/07/05 05:18:18;;;;;;;19.60;13.38;;;;;;;24.57;60.23;95170.69;5121117;27;20147;-78
2023/07/05 05:20:43;;;;;;;20.35;11.88;;;;;;;24.42;60.18;95150.69;5122403;27;20200;-78
2023/07/05 05:23:09;;;;;;;23.30;13.25;;;;;;;24.59;60.34;95179.25;5124910;27;20031;-78
2023/07/05 05:25:35;;;;;;;15.60;12.30;;;;;;;24.21;59.52;95115.91;5122179;27;20034;-78
2023/07/05 05:28:01;;;;;;;20.92;12.70;;;;;;;24.40;59.74;95142.16;5130623;27;20027;-80
2023/07/05 05:30:26;;;;;;;19.33;12.77;;;;;;;24.48;59.87;95164.75;5131861;27;20119;-78
2023/07/05 05:32:52;;;;;;;18.52;12.75;;;;;;;24.60;59.47;95165.34;5113482;27;20106;-78
2023/07/05 05:35:17;;;;;;;21.25;12.57;;;;;;;24.35;59.17;95117.28;5115184;27;20453;-79
2023/07/05 05:37:43;;;;;;;19.88;12.70;;;;;;;24.67;58.78;95156.53;5125678;27;20039;-79
2023/07/05 05:40:10;;;;;;;20.23;12.77;;;;;;;24.84;58.77;95177.72;5112711;27;20062;-77
2023/07/05 05:42:36;;;;;;;20.83;13.98;;;;;;;24.68;59.40;95182.50;5110383;27;20035;-78
2023/07/05 05:45:02;;;;;;;21.95;13.20;;;;;;;24.60;59.72;95180.81;5131939;27;20077;-78
2023/07/05 05:47:27;;;;;;;20.40;12.82;;;;;;;24.55;59.27;95162.94;5130139;27;20454;-78
2023/07/05 05:49:53;;;;;;;18.67;13.60;;;;;;;24.43;59.66;95156.91;5112088;27;20141;-78
2023/07/05 05:52:18;;;;;;;17.40;12.25;;;;;;;24.63;59.67;95182.03;5112123;27;20130;-78
2023/07/05 05:54:44;;;;;;;20.63;13.18;;;;;;;24.48;59.83;95172.88;5114779;27;20031;-79
2023/07/05 05:57:09;;;;;;;20.85;13.43;;;;;;;24.35;59.37;95139.75;5123025;27;20042;-79
2023/07/05 05:59:34;;;;;;;22.17;13.52;;;;;;;24.57;59.31;95157.91;5118285;27;20035;-79
2023/07/05 06:02:00;;;;;;;20.15;13.32;;;;;;;24.80;59.86;95182.31;5110405;28;20024;-79
2023/07/05 06:04:26;;;;;;;17.63;13.60;;;;;;;24.57;59.87;95166.06;5110036;27;20043;-79
2023/07/05 06:06:52;;;;;;;21.05;12.77;;;;;;;24.69;59.32;95156.97;5132531;27;20042;-79
2023/07/05 06:09:17;;;;;;;20.08;13.98;;;;;;;24.85;60.12;95164.94;5116465;27;20027;-79
2023/07/05 06:11:43;;;;;;;21.58;12.90;;;;;;;24.83;59.79;95140.91;5107683;27;20035;-79
2023/07/05 06:14:10;;;;;;;19.23;12.95;;;;;;;24.80;59.53;95127.28;5112694;27;20478;-79
2023/07/05 06:16:35;;;;;;;19.63;12.95;;;;;;;24.75;58.97;95109.41;5119438;27;20091;-79
2023/07/05 06:19:02;;;;;;;18.95;13.27;;;;;;;24.80;59.14;95109.06;5124470;27;20043;-79
2023/07/05 06:21:27;;;;;;;18.73;13.52;;;;;;;24.99;59.42;95132.63;5112924;27;20508;-79
2023/07/05 06:23:52;;;;;;;22.17;12.82;;;;;;;24.95;60.04;95118.22;5127197;27;20034;-79
2023/07/05 06:26:19;;;;;;;19.23;12.52;;;;;;;24.99;59.82;95117.13;5114724;27;20124;-79
2023/07/05 06:28:45;;;;;;;24.67;12.57;;;;;;;24.96;60.26;95115.16;5139541;27;20046;-79
2023/07/05 06:31:11;;;;;;;18.60;11.82;;;;;;;24.91;59.78;95106.56;5116954;27;20088;-79
2023/07/05 06:33:37;;;;;;;19.20;12.13;;;;;;;25.29;59.63;95157.09;5109289;27;20035;-79
2023/07/05 06:36:02;;;;;;;18.52;12.30;;;;;;;25.09;58.96;95126.59;5133452;27;20519;-79
2023/07/05 06:38:29;;;;;;;16.95;12.68;;;;;;;25.35;59.04;95150.19;5122402;27;20031;-79
2023/07/05 06:40:55;;;;;;;23.40;12.18;;;;;;;25.39;58.08;95159.16;5131572;27;20042;-79
2023/07/05 06:43:21;;;;;;;20.60;12.30;;;;;;;25.41;58.05;95142.47;5145135;27;20080;-79
2023/07/05 06:45:52;;;;;;;16.95;11.50;;;;;;;25.54;57.35;95149.25;5128638;27;20122;-79
2023/07/05 06:48:18;;;;;;;16.70;11.53;;;;;;;25.64;57.49;95148.63;5146895;27;20088;-79
2023/07/05 06:50:43;;;;;;;16.95;12.30;;;;;;;25.71;57.48;95144.06;5151596;27;20295;-79
2023/07/05 06:53:10;;;;;;;21.55;12.43;;;;;;;25.57;57.08;95137.66;5147788;27;20037;-79
2023/07/05 06:55:40;;;;;;;21.40;12.75;;;;;;;25.53;57.06;95145.75;5126863;27;20030;-79
2023/07/05 06:58:06;;;;;;;20.13;12.48;;;;;;;25.45;57.15;95133.25;5139747;27;20051;-79
2023/07/05 07:00:31;;;;;;;18.23;12.27;;;;;;;25.52;57.19;95114.34;5127164;27;20034;-79
2023/07/05 07:02:57;;;;;;;17.35;11.88;;;;;;;25.56;57.49;95109.72;5149451;27;20087;-79
2023/07/05 07:05:22;;;;;;;20.00;12.57;;;;;;;25.68;57.16;95119.59;5151559;27;20461;-79
2023/07/05 07:07:50;;;;;;;17.25;12.30;;;;;;;25.72;57.04;95137.47;5136741;27;20027;-79
2023/07/05 07:10:16;;;;;;;18.92;11.32;;;;;;;25.59;56.93;95102.78;5128237;27;20037;-79
2023/07/05 07:12:41;;;;;;;20.85;11.93;;;;;;;25.77;57.10;95114.66;5125590;27;20516;-79
2023/07/05 07:15:07;;;;;;;21.08;11.85;;;;;;;25.57;57.26;95069.75;5134621;27;20030;-79
2023/07/05 07:17:32;;;;;;;17.90;11.95;;;;;;;25.73;56.95;95079.28;5132727;27;20505;-79
2023/07/05 07:19:57;;;;;;;16.92;11.43;;;;;;;25.75;57.59;95108.81;5130562;27;20031;-79
2023/07/05 07:22:24;;;;;;;19.63;12.90;;;;;;;26.12;57.41;95144.91;5130311;27;20019;-79
2023/07/05 07:24:51;;;;;;;18.75;12.07;;;;;;;26.09;56.41;95134.75;5129531;27;20030;-79
2023/07/05 07:27:17;;;;;;;16.02;11.52;;;;;;;26.01;56.24;95116.84;5130031;27;20031;-79
2023/07/05 07:29:42;;;;;;;16.13;12.07;;;;;;;26.24;55.95;95129.50;5131596;27;20051;-79
2023/07/05 07:32:08;;;;;;;17.52;11.75;;;;;;;26.07;57.16;95104.47;5119430;28;20494;-78
2023/07/05 07:34:34;;;;;;;21.88;12.63;;;;;;;26.36;56.82;95126.50;5129154;27;20058;-78
2023/07/05 07:37:00;;;;;;;13.77;11.60;;;;;;;26.28;56.25;95103.91;5118272;28;20109;-79
2023/07/05 07:39:25;;;;;;;16.27;10.65;;;;;;;26.30;56.31;95104.31;5129857;28;20061;-78
2023/07/05 07:41:50;;;;;;;18.13;11.27;;;;;;;26.12;55.96;95078.88;5127424;27;20095;-79
2023/07/05 07:44:21;;;;;;;18.27;11.30;;;;;;;26.43;55.23;95119.19;5109361;28;20038;-78
2023/07/05 07:46:47;;;;;;;32.55;11.52;;;;;;;26.21;55.05;95070.44;5125137;27;20039;-77
2023/07/05 07:49:14;;;;;;;17.10;11.43;;;;;;;26.18;55.76;95063.00;5112216;28;20068;-78
2023/07/05 07:51:44;;;;;;;21.75;10.73;;;;;;;26.33;55.42;95076.38;5129723;28;20031;-78
2023/07/05 07:54:18;;;;;;;18.27;11.90;;;;;;;26.72;56.38;95122.13;5127318;28;20030;-78
2023/07/05 07:56:45;;;;;;;18.20;11.40;;;;;;;26.42;55.92;95081.50;5128930;27;20027;-78
2023/07/05 07:59:11;;;;;;;21.48;11.65;;;;;;;26.11;55.82;95009.38;5113066;28;20027;-79
2023/07/05 08:01:38;;;;;;;17.23;11.57;;;;;;;26.19;55.13;95027.31;5122362;28;20531;-79
2023/07/05 08:04:05;;;;;;;24.65;12.93;;;;;;;26.67;55.84;95096.06;5115238;28;20058;-79
2023/07/05 08:06:36;;;;;;;18.42;11.85;;;;;;;26.85;54.69;95121.44;5099106;27;20056;-79
2023/07/05 08:09:05;;;;;;;19.17;11.82;;;;;;;26.88;54.45;95104.38;5129029;27;20470;-79
2023/07/05 08:11:32;;;;;;;16.00;10.75;;;;;;;27.00;54.81;95121.59;5124273;27;20027;-79
2023/07/05 08:13:57;;;;;;;19.70;11.55;;;;;;;26.80;54.55;95086.44;5130476;27;20031;-78
2023/07/05 08:16:23;;;;;;;21.50;12.07;;;;;;;27.05;53.86;95119.28;5111540;28;20106;-79
2023/07/05 08:18:48;;;;;;;20.95;11.77;;;;;;;27.15;53.76;95120.50;5111879;28;20047;-78
2023/07/05 08:21:14;;;;;;;18.80;11.50;;;;;;;26.41;53.70;95017.41;5101197;28;20490;-80
2023/07/05 08:23:41;;;;;;;16.02;10.82;;;;;;;26.72;53.61;95037.78;5117358;28;20059;-79
2023/07/05 08:26:06;;;;;;;14.32;10.85;;;;;;;27.13;53.58;95106.50;5138256;27;20034;-79
2023/07/05 08:28:32;;;;;;;16.60;10.95;;;;;;;27.28;53.39;95122.53;5142364;27;20042;-79
2023/07/05 08:30:59;;;;;;;15.38;10.45;;;;;;;27.21;55.35;95122.47;5127103;28;20506;-79
2023/07/05 08:33:27;;;;;;;17.65;11.50;;;;;;;27.17;54.53;95093.66;5124133;27;20035;-78
2023/07/05 08:36:36;;;;;;;18.10;11.00;;;;;;;27.28;53.60;95119.00;5111469;28;20097;-78
2023/07/05 08:39:05;;;;;;;14.30;10.43;;;;;;;27.27;54.80;95099.16;5111511;27;20046;-78
2023/07/05 08:41:33;;;;;;;18.80;10.93;;;;;;;27.45;53.33;95115.59;5109607;27;20122;-78
2023/07/05 08:44:07;;;;;;;17.70;11.35;;;;;;;27.48;53.75;95114.03;5146446;27;20037;-78
2023/07/05 08:46:33;;;;;;;16.98;10.68;;;;;;;27.58;53.88;95102.44;5148145;27;20026;-79
2023/07/05 08:49:03;;;;;;;17.95;12.13;;;;;;;27.58;53.60;95086.88;5130495;27;20094;-78
2023/07/05 08:51:30;;;;;;;19.60;11.18;;;;;;;27.52;52.63;95082.94;5119486;27;20050;-79
2023/07/05 08:53:59;;;;;;;17.38;10.65;;;;;;;27.73;52.05;95076.03;5136686;27;20496;-79
2023/07/05 08:56:39;;;;;;;14.95;10.35;;;;;;;27.96;53.81;95101.00;5131987;27;20529;-79
2023/07/05 08:59:10;;;;;;;12.48;10.48;;;;;;;28.00;53.48;95105.28;5145774;27;20027;-79
2023/07/05 09:01:40;;;;;;;13.48;10.45;;;;;;;28.07;52.70;95087.41;5134385;27;20110;-79
2023/07/05 09:04:12;;;;;;;13.25;10.38;;;;;;;28.35;52.47;95090.16;5152718;27;20035;-79
2023/07/05 09:06:49;;;;;;;11.70;9.77;;;;;;;28.42;52.50;95087.44;5134190;27;20034;-79
2023/07/05 09:09:58;;;;;;;16.75;10.13;;;;;;;28.42;52.46;95092.91;5147993;27;20500;-79
2023/07/05 09:12:34;;;;;;;12.63;9.30;;;;;;;28.72;51.07;95087.03;5092370;27;20107;-78
2023/07/05 09:15:22;;;;;;;16.48;10.18;;;;;;;28.65;52.88;95087.81;5134258;27;20034;-78
2023/07/05 09:18:07;;;;;;;17.05;9.40;;;;;;;28.93;51.58;95081.56;5135137;27;20046;-79
2023/07/05 09:21:09;;;;;;;19.08;10.48;;;;;;;29.12;49.77;95072.94;5129989;27;20123;-78
2023/07/05 09:23:41;;;;;;;14.98;10.00;;;;;;;28.97;48.33;95033.22;5146920;27;20030;-78
2023/07/05 09:26:32;;;;;;;14.15;9.32;;;;;;;29.32;49.63;95065.06;5125301;27;20118;-78
2023/07/05 09:28:58;;;;;;;;;;;;;;;29.41;49.25;95064.69;5108181;27;20019;-79
2023/07/05 09:31:24;;;;;;;14.93;9.55;;;;;;;29.54;49.50;95043.94;5149472;27;19968;-78
2023/07/05 09:34:09;;;;;;;13.32;8.77;;;;;;;29.65;49.02;95022.03;5115181;27;20188;-78
2023/07/05 09:36:34;;;;;;;13.93;9.52;;;;;;;29.96;47.68;95042.94;5116544;27;20030;-78
2023/07/05 09:39:36;;;;;;;15.45;10.15;;;;;;;30.20;46.85;95054.88;5137528;27;20023;-78
2023/07/05 09:42:06;;;;;;;12.80;9.98;;;;;;;30.16;46.89;95048.66;5106186;27;20047;-78
2023/07/05 09:44:31;;;;;;;12.33;8.83;;;;;;;30.13;46.94;95031.13;5110681;27;20046;-78
2023/07/05 09:46:57;;;;;;;12.10;7.72;;;;;;;30.28;46.40;95038.03;5129484;27;20362;-78
2023/07/05 09:49:25;;;;;;;11.90;8.77;;;;;;;30.54;46.04;95057.75;5114219;27;20174;-78
2023/07/05 09:51:52;;;;;;;10.82;8.80;;;;;;;30.62;44.86;95059.25;5100244;28;20024;-79
2023/07/05 09:54:17;;;;;;;13.75;9.02;;;;;;;30.68;44.52;95066.63;5112615;27;20042;-78
2023/07/05 09:57:04;;;;;;;13.43;9.40;;;;;;;30.70;44.14;95049.78;5113012;27;20542;-78
2023/07/05 09:59:31;;;;;;;11.60;9.02;;;;;;;30.62;45.06;95029.94;5141183;27;20019;-77
2023/07/05 10:02:14;;;;;;;16.02;8.90;;;;;;;30.67;45.72;95054.09;5121609;27;20054;-78
2023/07/05 10:05:13;;;;;;;14.18;9.35;;;;;;;30.41;45.57;95024.63;5140963;27;20042;-78
2023/07/05 10:07:52;;;;;;;10.57;8.02;;;;;;;30.49;45.36;95023.38;5138155;27;20057;-78
2023/07/05 10:10:18;;;;;;;14.32;9.40;;;;;;;30.71;45.50;95042.34;5136558;27;20560;-79
2023/07/05 10:12:43;;;;;;;13.30;8.85;;;;;;;30.72;46.12;95043.91;5134236;27;20037;-78
2023/07/05 10:15:24;;;;;;;9.68;7.85;;;;;;;30.63;46.67;95034.22;5132999;27;20643;-78
2023/07/05 10:17:51;;;;;;;14.52;9.35;;;;;;;30.61;46.43;95017.41;5108442;27;20487;-78
2023/07/05 10:20:19;;;;;;;10.23;8.70;;;;;;;30.87;45.53;95050.81;5137390;27;20063;-78
2023/07/05 10:22:45;;;;;;;13.00;9.32;;;;;;;30.88;45.13;95044.16;5120511;27;20073;-78
2023/07/05 10:25:17;;;;;;;16.02;9.20;;;;;;;30.85;44.16;95037.53;5129690;27;20131;-79
2023/07/05 10:27:46;;;;;;;10.48;9.27;;;;;;;30.91;44.11;95035.09;5119371;27;20113;-79
2023/07/05 10:30:15;;;;;;;13.40;8.95;;;;;;;30.94;45.11;95039.78;5129996;27;20508;-78
2023/07/05 10:32:43;;;;;;;12.77;8.25;;;;;;;31.04;43.91;95045.16;5122682;27;20140;-78
2023/07/05 10:35:22;;;;;;;12.50;8.25;;;;;;;31.32;44.08;95041.31;5135155;27;20826;-79
2023/07/05 10:37:47;;;;;;;12.77;8.77;;;;;;;31.36;43.48;95005.66;5140929;27;20167;-78
2023/07/05 10:40:13;;;;;;;10.65;8.10;;;;;;;31.59;43.10;95007.69;5152132;27;20082;-78
2023/07/05 10:42:41;;;;;;;13.68;8.23;;;;;;;31.73;42.24;95004.81;5153299;27;20114;-78
2023/07/05 10:45:15;;;;;;;12.05;7.70;;;;;;;32.24;40.60;95041.28;5131475;27;20031;-78
2023/07/05 10:47:42;;;;;;;13.05;7.47;;;;;;;32.06;39.81;95019.56;5104881;27;20031;-78
2023/07/05 10:50:09;;;;;;;10.82;6.93;;;;;;;32.25;41.42;95040.09;5127487;27;20023;-77
2023/07/05 10:52:37;;;;;;;11.90;7.90;;;;;;;32.15;41.15;95044.56;5128166;27;20039;-77
2023/07/05 10:55:18;;;;;;;14.35;8.18;;;;;;;31.87;41.24;95034.75;5123100;27;20119;-78
2023/07/05 10:58:04;;;;;;;18.75;7.68;;;;;;;31.81;41.15;95030.94;5122746;27;20031;-78
2023/07/05 11:00:39;;;;;;;10.23;7.68;;;;;;;31.54;41.64;95046.53;5131536;27;20045;-79
2023/07/05 11:03:10;;;;;;;10.95;7.00;;;;;;;31.55;41.53;95059.06;5127649;27;20030;-79
2023/07/05 11:05:42;;;;;;;14.00;6.88;;;;;;;31.22;42.82;95055.91;5127422;27;20034;-79
2023/07/05 11:08:35;;;;;;;10.82;6.30;;;;;;;30.92;43.55;95053.09;5122177;27;20152;-79
2023/07/05 11:11:09;;;;;;;10.30;6.55;;;;;;;30.62;44.23;95064.72;5121077;27;20035;-79
2023/07/05 11:13:34;;;;;;;10.13;7.32;;;;;;;30.00;45.29;95049.16;5133279;27;20115;-79
2023/07/05 11:16:00;;;;;;;7.93;6.20;;;;;;;29.98;44.88;95034.34;5146954;27;20050;-79
2023/07/05 11:18:27;;;;;;;12.43;7.10;;;;;;;29.84;45.60;95026.97;5150261;27;20517;-79
2023/07/05 11:20:55;;;;;;;10.02;6.50;;;;;;;29.79;45.99;95046.53;5120865;27;20176;-80
2023/07/05 11:23:43;;;;;;;10.25;6.70;;;;;;;29.80;46.38;95056.28;5138815;27;20027;-79
2023/07/05 11:26:32;;;;;;;14.30;6.60;;;;;;;29.53;46.75;95039.63;5101146;27;20548;-79
2023/07/05 11:28:57;;;;;;;18.40;6.47;;;;;;;29.41;47.00;95045.56;5121725;27;20039;-79